Latest Weather Observations for Yarrawonga

IDN60801

Issued at 8:05 am EDT Tuesday 21 October 2014 (issued every 30 minutes, with the page automatically refreshed every 10 minutes)

About weather observations | Map of weather stations | Latest weather observations for NSW | Other Formats
Station Details ID: 081124 Name: YARRAWONGA Lat: -36.03 Lon: 146.03 Height: 128.9 m
Data from the previous 72 hours. | See also: Recent months at Yarrawonga
Date/Time
EDT
Temp
°C
App
Temp
°C
Dew
Point
Rel
Hum
%
Delta-T
°C
Wind Press
QNH
hPa
Press
MSL
hPa
Rain
since 9 am
mm
Dir
 
Spd
km/h
Gust
km/h
Spd
kts
Gust
kts
21/08:00am 14.5 11.4 8.9 69 2.8 ENE 15 22 8 12 1027.3 1027.2 0.0
21/07:30am 13.1 10.7 8.8 75 2.2 NE 11 15 6 8 1027.2 1027.1 0.0
21/07:00am 11.2 9.2 8.8 85 1.2 NE 9 13 5 7 1026.9 1026.8 0.0
21/06:30am 10.4 8.0 8.5 88 0.9 NE 11 13 6 7 1026.6 1026.5 0.0
21/06:00am 10.5 8.0 8.3 86 1.1 ENE 11 13 6 7 1026.2 1026.1 0.0
21/05:30am 11.2 8.8 8.6 84 1.3 NE 11 15 6 8 1025.9 1025.8 0.0
21/05:00am 11.6 8.8 8.6 82 1.5 NE 13 15 7 8 1025.9 1025.8 0.0
21/04:30am 12.3 9.6 9.0 80 1.7 ENE 13 20 7 11 1025.7 1025.6 0.0
21/04:00am 11.8 9.8 8.6 81 1.6 NE 9 13 5 7 1025.6 1025.5 0.0
21/03:30am 12.8 10.0 8.7 76 2.1 NE 13 19 7 10 1025.7 1025.6 0.0
21/03:00am 13.9 10.0 8.7 71 2.6 NNE 19 30 10 16 1025.7 1025.6 0.0
21/02:30am 12.9 10.3 9.5 80 1.7 NE 13 17 7 9 1025.7 1025.6 0.0
21/02:00am 13.8 11.2 9.3 74 2.3 NE 13 19 7 10 1025.8 1025.7 0.0
21/01:30am 14.8 11.8 9.4 70 2.8 NE 15 20 8 11 1025.8 1025.7 0.0
21/01:00am 15.2 12.5 10.2 72 2.6 NE 15 22 8 12 1025.7 1025.6 0.0
21/12:30am 14.1 11.8 9.1 72 2.6 NE 11 15 6 8 1025.4 1025.3 0.0
21/12:00am 11.7 9.5 8.0 78 1.8 E 9 15 5 8 1025.0 1024.9 0.0
 
Date/Time
EDT
Temp
°C
App
Temp
°C
Dew
Point
Rel
Hum
%
Delta-T
°C
Wind Press
QNH
hPa
Press
MSL
hPa
Rain
since 9 am
mm
Dir
 
Spd
km/h
Gust
km/h
Spd
kts
Gust
kts
20/11:30pm 11.1 9.9 8.0 81 1.5 S 4 6 2 3 1024.9 1024.8 0.0
20/11:00pm 12.1 10.5 8.2 77 1.9 SSW 6 7 3 4 1024.5 1024.4 0.0
20/10:30pm 12.0 10.2 8.1 77 1.9 WSW 7 9 4 5 1024.3 1024.2 0.0
20/10:00pm 13.1 11.4 8.2 72 2.4 WSW 7 9 4 5 1024.1 1024.0 0.0
20/09:30pm 15.5 13.3 8.0 61 3.8 WSW 9 11 5 6 1024.0 1023.9 0.0
20/09:00pm 15.5 13.3 7.8 60 3.9 SW 9 11 5 6 1023.6 1023.5 0.0
20/08:30pm 15.9 13.2 7.4 57 4.3 SW 11 13 6 7 1023.1 1023.0 0.0
20/08:00pm 17.3 15.6 8.4 56 4.6 SW 7 9 4 5 1022.8 1022.8 0.0
20/07:30pm 20.7 18.9 8.0 44 6.6 SW 7 9 4 5 1022.6 1022.6 0.0
20/07:00pm 24.4 22.0 7.1 33 9.1 SW 9 13 5 7 1022.2 1022.2 0.0
20/06:30pm 26.5 23.5 6.0 27 10.7 SW 11 15 6 8 1022.1 1022.1 0.0
20/06:00pm 27.3 24.1 5.0 24 11.4 SSW 11 17 6 9 1021.9 1021.9 0.0
20/05:30pm 28.1 24.4 6.2 25 11.6 SSW 15 24 8 13 1021.9 1021.9 0.0
20/05:00pm 28.1 24.4 6.2 25 11.5 SSW 15 22 8 12 1021.9 1021.9 0.0
20/04:30pm 28.4 25.5 8.1 28 11.1 SW 13 22 7 12 1021.9 1021.9 0.0
20/04:00pm 28.3 25.5 8.6 29 10.8 SSW 13 20 7 11 1022.0 1022.0 0.0
20/03:30pm 27.9 25.4 8.2 29 10.8 SSW 11 26 6 14 1022.3 1022.3 0.0
20/03:00pm 27.8 25.9 9.1 31 10.3 SW 9 17 5 9 1022.7 1022.7 0.0
20/02:30pm 27.2 24.9 9.1 32 10.0 SW 11 17 6 9 1023.2 1023.1 0.0
20/02:00pm 26.7 25.4 10.0 35 9.3 SSW 7 15 4 8 1023.6 1023.5 0.0
20/01:30pm 26.7 25.7 10.4 36 9.2 S 6 15 3 8 1023.9 1023.8 0.0
20/01:00pm 26.1 25.1 10.3 37 8.8 W 6 11 3 6 1024.0 1023.9 0.0
20/12:30pm 25.8 24.9 10.8 39 8.5 WSW 6 11 3 6 1024.5 1024.4 0.0
20/12:00pm 24.4 23.0 11.0 43 7.5 SW 9 15 5 8 1024.7 1024.6 0.0
20/11:30am 23.8 23.0 11.2 45 7.1 SSW 6 11 3 6 1024.9 1024.8 0.0
20/11:00am 22.1 21.1 10.9 49 6.2 SSW 7 13 4 7 1025.0 1024.9 0.0
20/10:30am 21.5 20.7 11.2 52 5.7 S 6 7 3 4 1025.1 1025.0 0.0
20/10:00am 20.3 19.4 10.7 54 5.2 SSW 6 11 3 6 1025.2 1025.1 0.0
20/09:30am 18.6 17.1 10.7 60 4.3 SSW 9 15 5 8 1025.2 1025.1 0.0
20/09:00am 17.4 15.5 10.5 64 3.7 SSW 11 15 6 8 1025.0 1024.9 0.0
20/08:30am 15.5 13.6 10.5 72 2.7 SSW 11 13 6 7 1024.5 1024.4 0.0
20/08:00am 13.8 11.8 10.0 78 2.0 SSW 11 13 6 7 1024.3 1024.2 0.0
20/07:30am 12.3 11.0 10.0 86 1.2 SSW 7 13 4 7 1024.0 1023.9 0.0
20/07:00am 10.4 8.7 9.8 96 0.3 SW 9 13 5 7 1023.5 1023.4 0.0
20/06:30am 9.5 7.1 8.7 95 0.4 WSW 11 15 6 8 1023.2 1023.1 0.0
20/06:00am 10.6 8.7 9.2 91 0.7 SSW 9 11 5 6 1022.8 1022.8 0.0
20/05:30am 11.5 9.5 10.1 91 0.7 SSW 11 17 6 9 1022.4 1022.4 0.0
20/05:00am 12.1 9.4 10.2 88 1.0 SSW 15 17 8 9 1022.3 1022.3 0.0
20/04:30am 12.6 9.9 10.3 86 1.2 SSW 15 17 8 9 1022.1 1022.1 0.0
20/04:00am 12.4 10.5 10.5 88 1.0 SSW 11 15 6 8 1021.9 1021.9 0.0
20/03:30am 12.2 9.9 10.4 89 0.9 SSW 13 19 7 10 1021.9 1021.9 0.0
20/03:00am 12.3 10.4 10.5 89 0.9 SSW 11 17 6 9 1021.8 1021.8 0.0
20/02:30am 11.9 9.9 10.3 90 0.8 SW 11 15 6 8 1021.8 1021.8 0.0
20/02:00am 12.2 10.1 9.9 86 1.2 WSW 11 13 6 7 1021.3 1021.2 0.0
20/01:30am 13.4 12.4 10.2 81 1.7 SSW 6 7 3 4 1021.6 1021.6 0.0
20/01:00am 14.0 12.1 10.6 80 1.8 SSW 11 15 6 8 1022.2 1022.2 0.0
20/12:30am 13.4 12.5 10.6 83 1.5 S 6 13 3 7 1022.2 1022.2 0.0
20/12:00am 14.1 13.3 10.9 81 1.7 SSE 6 7 3 4 1021.9 1021.9 0.0
 
Date/Time
EDT
Temp
°C
App
Temp
°C
Dew
Point
Rel
Hum
%
Delta-T
°C
Wind Press
QNH
hPa
Press
MSL
hPa
Rain
since 9 am
mm
Dir
 
Spd
km/h
Gust
km/h
Spd
kts
Gust
kts
19/11:30pm 15.4 13.3 11.2 76 2.3 SSW 13 22 7 12 1022.4 1022.4 0.0
19/11:00pm 14.3 13.3 10.9 80 1.8 S 7 9 4 5 1021.6 1021.6 0.0
19/10:30pm 16.4 16.6 11.8 74 2.5 NE 2 4 1 2 1021.3 1021.2 0.0
19/10:00pm 17.3 16.2 12.0 71 2.9 NE 9 11 5 6 1021.1 1021.0 0.0
19/09:30pm 17.1 16.1 12.4 74 2.6 ENE 9 13 5 7 1021.2 1021.1 0.0
19/09:00pm 17.4 16.5 11.4 68 3.3 ENE 7 9 4 5 1021.1 1021.0 0.0
19/08:30pm 19.0 16.9 11.1 60 4.3 E 13 13 7 7 1020.9 1020.8 0.0
19/08:00pm 19.9 18.4 10.6 55 5.1 E 9 17 5 9 1020.9 1020.8 0.0
19/07:30pm 23.4 22.8 11.8 48 6.6 ESE 6 6 3 3 1020.8 1020.7 0.0
19/07:00pm 26.5 26.3 11.8 40 8.4 ESE 4 4 2 2 1020.5 1020.4 0.0
19/06:30pm 27.8 27.2 7.6 28 10.9 CALM 0 0 0 0 1020.2 1020.1 0.0
19/06:00pm 28.5 25.9 3.4 20 12.6 NW 6 7 3 4 1020.3 1020.2 0.0
19/05:30pm 29.6 26.1 1.1 16 13.9 NW 9 17 5 9 1020.3 1020.2 0.0
19/05:00pm 30.5 27.1 1.9 16 14.2 WNW 9 13 5 7 1020.2 1020.1 0.0
19/04:30pm 29.5 26.6 2.7 18 13.4 WNW 7 11 4 6 1020.4 1020.3 0.0
19/04:00pm 30.1 26.8 2.4 17 13.8 NW 9 15 5 8 1020.8 1020.7 0.0
19/03:30pm 30.5 26.0 1.9 16 14.2 N 15 20 8 11 1021.0 1020.9 0.0
19/03:00pm 29.2 24.4 2.5 18 13.3 NNW 17 24 9 13 1021.4 1021.3 0.0
19/02:30pm 29.9 27.2 3.8 19 13.4 WNW 7 17 4 9 1021.7 1021.7 0.0
19/02:00pm 29.0 26.5 6.4 24 12.0 NE 9 15 5 8 1022.2 1022.2 0.0
19/01:30pm 27.2 24.5 5.5 25 11.3 NNE 9 15 5 8 1022.9 1022.9 0.0
19/01:00pm 27.5 24.4 5.7 25 11.3 NNE 11 17 6 9 1023.6 1023.5 0.0
19/12:30pm 26.3 24.2 8.3 32 9.8 ENE 9 17 5 9 1023.9 1023.8 0.0
19/12:00pm 24.5 22.5 8.5 36 8.6 ENE 9 17 5 9 1024.4 1024.3 0.0
19/11:30am 22.7 20.5 9.5 43 7.2 ENE 11 15 6 8 1025.0 1024.9 0.0
19/11:00am 21.9 19.8 9.8 46 6.5 ENE 11 17 6 9 1025.1 1025.0 0.0
19/10:30am 20.6 18.0 9.5 49 6.0 ENE 13 17 7 9 1025.2 1025.1 0.0
19/10:00am 19.6 16.4 8.6 49 5.7 NE 15 20 8 11 1025.3 1025.2 0.0
19/09:30am 18.5 15.9 9.3 55 4.9 NE 13 19 7 10 1025.5 1025.4 0.0
19/09:00am 16.7 14.6 9.9 64 3.6 ENE 11 17 6 9 1025.5 1025.4 0.0
19/08:30am 17.1 14.5 9.5 61 4.0 ENE 13 19 7 10 1025.5 1025.4 0.0
19/08:00am 13.9 12.6 9.9 77 2.1 E 7 11 4 6 1025.4 1025.3 0.0
19/07:30am 11.7 10.3 9.4 86 1.2 E 7 9 4 5 1025.1 1025.0 0.0
19/07:00am 10.9 9.0 9.0 88 0.9 E 9 11 5 6 1024.8 1024.7 0.0
19/06:30am 9.9 7.8 8.3 90 0.8 E 9 13 5 7 1024.4 1024.3 0.0
19/06:00am 10.2 7.7 8.3 88 0.9 ESE 11 15 6 8 1024.3 1024.2 0.0
19/05:30am 9.9 7.9 8.5 91 0.7 ENE 9 15 5 8 1023.9 1023.8 0.0
19/05:00am 8.8 7.0 7.9 94 0.4 E 7 9 4 5 1023.9 1023.8 0.0
19/04:30am 9.1 7.5 7.9 92 0.6 E 6 9 3 5 1023.9 1023.8 0.0
19/04:00am 9.6 7.8 8.0 90 0.8 E 7 7 4 4 1023.7 1023.6 0.0
19/03:30am 9.5 7.4 8.1 91 0.7 E 9 11 5 6 1023.9 1023.8 0.0
19/03:00am 9.7 7.9 7.8 88 0.9 ESE 7 9 4 5 1024.1 1024.0 0.0
19/02:30am 10.3 8.7 8.2 87 1.0 E 6 9 3 5 1024.1 1024.0 0.0
19/02:00am 10.4 8.6 8.0 85 1.2 E 7 9 4 5 1024.4 1024.3 0.0
19/01:30am 11.3 9.6 8.2 81 1.5 E 7 9 4 5 1024.8 1024.7 0.0
19/01:00am 11.2 9.6 8.2 82 1.5 ESE 6 9 3 5 1025.0 1024.9 0.0
19/12:30am 12.1 10.1 8.8 80 1.7 ESE 9 11 5 6 1025.2 1025.1 0.0
19/12:00am 14.4 12.7 10.0 75 2.3 E 9 13 5 7 1025.2 1025.1 0.0
 
Date/Time
EDT
Temp
°C
App
Temp
°C
Dew
Point
Rel
Hum
%
Delta-T
°C
Wind Press
QNH
hPa
Press
MSL
hPa
Rain
since 9 am
mm
Dir
 
Spd
km/h
Gust
km/h
Spd
kts
Gust
kts
18/11:30pm 13.5 11.9 10.1 80 1.8 E 9 11 5 6 1025.2 1025.1 0.0
18/11:00pm 13.1 11.6 9.0 76 2.1 E 7 11 4 6 1025.4 1025.3 0.0
18/10:30pm 13.6 12.1 8.4 71 2.6 E 6 9 3 5 1025.5 1025.4 0.0
18/10:00pm 14.4 12.0 8.6 68 2.9 E 11 13 6 7 1025.4 1025.3 0.0
18/09:30pm 14.5 12.0 8.2 66 3.2 E 11 13 6 7 1025.4 1025.3 0.0
18/09:00pm 14.9 12.4 8.4 65 3.3 E 11 13 6 7 1025.0 1024.9 0.0
18/08:30pm 15.3 13.3 8.8 65 3.3 E 9 11 5 6 1024.5 1024.4 0.0
18/08:00pm 17.4 15.9 9.3 59 4.2 E 7 9 4 5 1024.4 1024.3 0.0
18/07:30pm 19.6 18.1 9.2 51 5.5 ENE 7 7 4 4 1024.1 1024.0 0.0
18/07:00pm 22.4 20.4 6.2 35 8.2 ENE 6 7 3 4 1023.8 1023.7 0.0
18/06:30pm 23.8 21.7 5.7 31 9.2 E 6 9 3 5 1023.6 1023.5 0.0
18/06:00pm 24.4 21.7 3.7 26 10.2 E 7 9 4 5 1023.7 1023.6 0.0
18/05:30pm 24.4 21.2 3.1 25 10.4 NE 9 13 5 7 1023.5 1023.4 0.0
18/05:00pm 24.6 21.2 2.1 23 10.8 NE 9 15 5 8 1023.4 1023.3 0.0
18/04:30pm 24.7 22.0 3.9 26 10.3 NNE 7 15 4 8 1023.6 1023.5 0.0
18/04:00pm 24.3 21.7 4.1 27 10.0 NNE 7 13 4 7 1023.9 1023.8 0.0
18/03:30pm 24.2 21.2 4.0 27 10.0 NNE 9 19 5 10 1024.2 1024.1 0.0
18/03:00pm 23.5 20.6 4.5 29 9.4 NE 9 19 5 10 1024.9 1024.8 0.0
18/02:30pm 24.0 21.4 4.4 28 9.8 N 7 17 4 9 1025.6 1025.5 0.0
18/02:00pm 23.3 20.6 5.7 32 8.9 NNE 9 19 5 10 1025.9 1025.8 0.0
18/01:30pm 23.5 20.8 5.4 31 9.2 NNE 9 20 5 11 1026.3 1026.2 0.0
18/01:00pm 22.5 19.9 5.9 34 8.4 NE 9 17 5 9 1026.5 1026.4 0.0
18/12:30pm 22.0 19.5 8.2 41 7.3 ENE 11 20 6 11 1027.2 1027.1 0.0
18/12:00pm 21.4 19.4 8.7 44 6.7 NNE 9 17 5 9 1027.8 1027.7 0.0
18/11:30am 19.7 17.5 7.8 46 6.2 NE 9 19 5 10 1027.8 1027.7 0.0
18/11:00am 19.8 17.1 8.8 49 5.8 NNE 13 20 7 11 1027.9 1027.8 0.0
18/10:30am 17.9 14.8 8.7 55 4.8 NE 15 20 8 11 1027.9 1027.8 0.0
18/10:00am 17.0 13.4 8.2 56 4.5 NE 17 24 9 13 1028.2 1028.2 0.0
18/09:30am 15.8 12.2 8.5 62 3.7 NE 17 24 9 13 1028.1 1028.1 0.0
18/09:00am 14.3 10.6 7.8 65 3.2 ENE 17 22 9 12 1028.2 1028.2 0.0
18/08:30am 12.8 11.2 8.7 76 2.1 E 7 11 4 6 1028.2 1028.2 0.0

Other Formats:

Comma delimited format used in spreadsheet applications
http://www.bom.gov.au/fwo/IDN60801/IDN60801.94862.axf

JavaScript Object Notation format (JSON) in row-major order
http://www.bom.gov.au/fwo/IDN60801/IDN60801.94862.json